sensor_id;sensor_type;location;lat;lon;timestamp;pressure;altitude;pressure_sealevel;temperature;humidity
9189;BME280;34313;50.780;6.084;2023-05-02T00:01:25;99851.59;;;9.87;100.00
9189;BME280;34313;50.780;6.084;2023-05-02T00:03:50;99858.41;;;9.91;100.00
9189;BME280;34313;50.780;6.084;2023-05-02T00:06:16;99849.50;;;9.93;100.00
9189;BME280;34313;50.780;6.084;2023-05-02T00:08:41;99848.09;;;9.86;100.00
9189;BME280;34313;50.780;6.084;2023-05-02T00:11:06;99853.66;;;9.80;100.00
9189;BME280;34313;50.780;6.084;2023-05-02T00:13:32;99856.53;;;9.75;100.00
9189;BME280;34313;50.780;6.084;2023-05-02T00:15:57;99861.03;;;9.73;100.00
9189;BME280;34313;50.780;6.084;2023-05-02T00:18:22;99859.94;;;9.77;100.00
9189;BME280;34313;50.780;6.084;2023-05-02T00:20:49;99865.41;;;9.73;100.00
9189;BME280;34313;50.780;6.084;2023-05-02T00:23:14;99851.41;;;9.72;100.00
9189;BME280;34313;50.780;6.084;2023-05-02T00:25:46;99857.16;;;9.80;100.00
9189;BME280;34313;50.780;6.084;2023-05-02T00:28:11;99855.09;;;9.87;100.00
9189;BME280;34313;50.780;6.084;2023-05-02T00:30:42;99856.84;;;9.87;100.00
9189;BME280;34313;50.780;6.084;2023-05-02T00:33:08;99863.28;;;9.98;100.00
9189;BME280;34313;50.780;6.084;2023-05-02T00:35:33;99863.22;;;10.00;100.00
9189;BME280;34313;50.780;6.084;2023-05-02T00:37:58;99863.84;;;10.05;100.00
9189;BME280;34313;50.780;6.084;2023-05-02T00:40:24;99858.44;;;10.08;100.00
9189;BME280;34313;50.780;6.084;2023-05-02T00:42:49;99863.28;;;10.16;100.00
9189;BME280;34313;50.780;6.084;2023-05-02T00:45:14;99870.09;;;10.20;100.00
9189;BME280;34313;50.780;6.084;2023-05-02T00:47:40;99873.78;;;10.35;100.00
9189;BME280;34313;50.780;6.084;2023-05-02T00:50:06;99872.00;;;10.35;100.00
9189;BME280;34313;50.780;6.084;2023-05-02T00:52:31;99880.66;;;10.37;100.00
9189;BME280;34313;50.780;6.084;2023-05-02T00:54:57;99882.38;;;10.38;100.00
9189;BME280;34313;50.780;6.084;2023-05-02T00:57:22;99888.25;;;10.44;100.00
9189;BME280;34313;50.780;6.084;2023-05-02T00:59:48;99885.22;;;10.51;100.00
9189;BME280;34313;50.780;6.084;2023-05-02T01:02:42;99892.75;;;10.59;100.00
9189;BME280;34313;50.780;6.084;2023-05-02T01:05:40;99892.75;;;10.59;100.00
9189;BME280;34313;50.780;6.084;2023-05-02T01:08:29;99901.09;;;10.67;100.00
9189;BME280;34313;50.780;6.084;2023-05-02T01:11:26;99897.75;;;10.64;100.00
9189;BME280;34313;50.780;6.084;2023-05-02T01:13:55;99900.41;;;10.64;100.00
9189;BME280;34313;50.780;6.084;2023-05-02T01:16:24;99900.47;;;10.62;100.00
9189;BME280;34313;50.780;6.084;2023-05-02T01:18:50;99896.06;;;10.63;100.00
9189;BME280;34313;50.780;6.084;2023-05-02T01:21:16;99905.06;;;10.58;100.00
9189;BME280;34313;50.780;6.084;2023-05-02T01:24:18;99899.63;;;10.62;100.00
9189;BME280;34313;50.780;6.084;2023-05-02T01:27:00;99906.69;;;10.61;100.00
9189;BME280;34313;50.780;6.084;2023-05-02T01:29:31;99900.25;;;10.49;100.00
9189;BME280;34313;50.780;6.084;2023-05-02T01:31:57;99908.50;;;10.43;100.00
9189;BME280;34313;50.780;6.084;2023-05-02T01:34:24;99907.00;;;10.55;100.00
9189;BME280;34313;50.780;6.084;2023-05-02T01:36:52;99912.69;;;10.47;100.00
9189;BME280;34313;50.780;6.084;2023-05-02T01:39:23;99925.78;;;10.49;100.00
9189;BME280;34313;50.780;6.084;2023-05-02T01:41:52;99930.16;;;10.48;100.00
9189;BME280;34313;50.780;6.084;2023-05-02T01:44:20;99931.75;;;10.52;100.00
9189;BME280;34313;50.780;6.084;2023-05-02T01:46:46;99933.59;;;10.50;100.00
9189;BME280;34313;50.780;6.084;2023-05-02T01:49:12;99936.94;;;10.54;100.00
9189;BME280;34313;50.780;6.084;2023-05-02T01:51:43;99934.31;;;10.36;100.00
9189;BME280;34313;50.780;6.084;2023-05-02T01:54:12;99934.88;;;10.24;100.00
9189;BME280;34313;50.780;6.084;2023-05-02T01:56:38;99934.81;;;10.26;100.00
9189;BME280;34313;50.780;6.084;2023-05-02T01:59:06;99933.44;;;10.36;100.00
9189;BME280;34313;50.780;6.084;2023-05-02T02:01:34;99938.69;;;10.36;100.00
9189;BME280;34313;50.780;6.084;2023-05-02T02:04:01;99941.84;;;10.25;100.00
9189;BME280;34313;50.780;6.084;2023-05-02T02:06:28;99941.78;;;10.27;100.00
9189;BME280;34313;50.780;6.084;2023-05-02T02:08:53;99941.63;;;10.30;100.00
9189;BME280;34313;50.780;6.084;2023-05-02T02:11:24;99937.34;;;10.27;100.00
9189;BME280;34313;50.780;6.084;2023-05-02T02:13:54;99945.75;;;10.35;100.00
9189;BME280;34313;50.780;6.084;2023-05-02T02:16:29;99948.69;;;10.29;100.00
9189;BME280;34313;50.780;6.084;2023-05-02T02:18:58;99941.84;;;10.25;100.00
9189;BME280;34313;50.780;6.084;2023-05-02T02:21:29;99945.66;;;10.19;100.00
9189;BME280;34313;50.780;6.084;2023-05-02T02:23:57;99943.78;;;10.21;100.00
9189;BME280;34313;50.780;6.084;2023-05-02T02:26:25;99945.91;;;10.32;100.00
9189;BME280;34313;50.780;6.084;2023-05-02T02:28:51;99949.09;;;10.39;100.00
9189;BME280;34313;50.780;6.084;2023-05-02T02:31:16;99948.53;;;10.32;100.00
9189;BME280;34313;50.780;6.084;2023-05-02T02:33:42;99951.19;;;10.32;100.00
9189;BME280;34313;50.780;6.084;2023-05-02T02:36:20;99947.75;;;10.30;100.00
9189;BME280;34313;50.780;6.084;2023-05-02T02:39:01;99951.09;;;10.34;100.00
9189;BME280;34313;50.780;6.084;2023-05-02T02:41:35;99952.81;;;10.35;100.00
9189;BME280;34313;50.780;6.084;2023-05-02T02:44:17;99951.72;;;10.39;100.00
9189;BME280;34313;50.780;6.084;2023-05-02T02:47:17;99953.59;;;10.37;100.00
9189;BME280;34313;50.780;6.084;2023-05-02T02:52:54;99951.03;;;10.35;100.00
9189;BME280;34313;50.780;6.084;2023-05-02T02:55:52;99949.59;;;10.28;100.00
9189;BME280;34313;50.780;6.084;2023-05-02T03:00:51;99954.38;;;10.20;100.00
9189;BME280;34313;50.780;6.084;2023-05-02T03:03:19;99959.84;;;10.17;100.00
9189;BME280;34313;50.780;6.084;2023-05-02T03:05:46;99963.44;;;10.14;100.00
9189;BME280;34313;50.780;6.084;2023-05-02T03:08:12;99961.13;;;10.08;100.00
9189;BME280;34313;50.780;6.084;2023-05-02T03:10:37;99963.31;;;10.17;100.00
9189;BME280;34313;50.780;6.084;2023-05-02T03:13:03;99959.03;;;10.15;100.00
9189;BME280;34313;50.780;6.084;2023-05-02T03:16:05;99955.78;;;10.10;100.00
9189;BME280;34313;50.780;6.084;2023-05-02T03:18:37;99968.03;;;10.11;100.00
9189;BME280;34313;50.780;6.084;2023-05-02T03:21:02;99971.50;;;10.11;100.00
9189;BME280;34313;50.780;6.084;2023-05-02T03:23:28;99968.03;;;10.11;100.00
9189;BME280;34313;50.780;6.084;2023-05-02T03:25:53;99968.78;;;10.13;100.00
9189;BME280;34313;50.780;6.084;2023-05-02T03:28:18;99966.94;;;10.15;100.00
9189;BME280;34313;50.780;6.084;2023-05-02T03:30:43;99971.28;;;10.16;100.00
9189;BME280;34313;50.780;6.084;2023-05-02T03:33:09;99974.00;;;10.14;100.00
9189;BME280;34313;50.780;6.084;2023-05-02T03:35:35;99982.38;;;10.22;100.00
9189;BME280;34313;50.780;6.084;2023-05-02T03:38:00;99980.66;;;10.21;100.00
9189;BME280;34313;50.780;6.084;2023-05-02T03:40:26;99971.34;;;10.33;100.00
9189;BME280;34313;50.780;6.084;2023-05-02T03:42:51;99971.75;;;10.43;100.00
9189;BME280;34313;50.780;6.084;2023-05-02T03:45:17;99980.09;;;10.34;100.00
9189;BME280;34313;50.780;6.084;2023-05-02T03:47:42;99991.69;;;10.30;100.00
9189;BME280;34313;50.780;6.084;2023-05-02T03:50:08;99986.81;;;10.22;100.00
9189;BME280;34313;50.780;6.084;2023-05-02T03:52:33;99993.47;;;10.29;100.00
9189;BME280;34313;50.780;6.084;2023-05-02T03:55:00;100000.19;;;10.36;100.00
9189;BME280;34313;50.780;6.084;2023-05-02T03:57:25;99990.34;;;10.40;100.00
9189;BME280;34313;50.780;6.084;2023-05-02T03:59:50;99997.00;;;10.47;100.00
9189;BME280;34313;50.780;6.084;2023-05-02T04:02:15;100006.16;;;10.40;100.00
9189;BME280;34313;50.780;6.084;2023-05-02T04:04:41;100006.06;;;10.42;100.00
9189;BME280;34313;50.780;6.084;2023-05-02T04:07:07;100009.84;;;10.36;100.00
9189;BME280;34313;50.780;6.084;2023-05-02T04:09:34;100016.84;;;10.37;100.00
9189;BME280;34313;50.780;6.084;2023-05-02T04:11:59;100019.41;;;10.38;100.00
9189;BME280;34313;50.780;6.084;2023-05-02T04:14:25;100019.47;;;10.37;100.00
9189;BME280;34313;50.780;6.084;2023-05-02T04:16:51;100022.88;;;10.39;100.00
9189;BME280;34313;50.780;6.084;2023-05-02T04:19:19;100021.59;;;10.29;100.00
9189;BME280;34313;50.780;6.084;2023-05-02T04:21:45;100019.97;;;10.26;100.00
9189;BME280;34313;50.780;6.084;2023-05-02T04:24:10;100023.97;;;10.35;100.00
9189;BME280;34313;50.780;6.084;2023-05-02T04:26:36;100022.81;;;10.40;100.00
9189;BME280;34313;50.780;6.084;2023-05-02T04:29:01;100032.72;;;10.35;100.00
9189;BME280;34313;50.780;6.084;2023-05-02T04:31:27;100034.81;;;10.27;100.00
9189;BME280;34313;50.780;6.084;2023-05-02T04:33:52;100044.50;;;10.27;100.00
9189;BME280;34313;50.780;6.084;2023-05-02T04:36:17;100042.72;;;10.27;100.00
9189;BME280;34313;50.780;6.084;2023-05-02T04:38:43;100047.16;;;10.27;100.00
9189;BME280;34313;50.780;6.084;2023-05-02T04:41:09;100045.28;;;10.29;100.00
9189;BME280;34313;50.780;6.084;2023-05-02T04:43:34;100042.72;;;10.27;100.00
9189;BME280;34313;50.780;6.084;2023-05-02T04:46:00;100049.47;;;10.34;100.00
9189;BME280;34313;50.780;6.084;2023-05-02T04:48:25;100059.63;;;10.42;100.00
9189;BME280;34313;50.780;6.084;2023-05-02T04:50:51;100057.13;;;10.39;100.00
9189;BME280;34313;50.780;6.084;2023-05-02T04:53:20;100052.69;;;10.39;100.00
9189;BME280;34313;50.780;6.084;2023-05-02T04:55:45;100063.25;;;10.39;100.00
9189;BME280;34313;50.780;6.084;2023-05-02T04:58:11;100065.16;;;10.36;100.00
9189;BME280;34313;50.780;6.084;2023-05-02T05:00:37;100069.38;;;10.40;100.00
9189;BME280;34313;50.780;6.084;2023-05-02T05:03:02;100064.88;;;10.42;100.00
9189;BME280;34313;50.780;6.084;2023-05-02T05:05:28;100077.22;;;10.42;100.00
9189;BME280;34313;50.780;6.084;2023-05-02T05:07:59;100069.38;;;10.40;100.00
9189;BME280;34313;50.780;6.084;2023-05-02T05:10:24;100080.56;;;10.45;100.00
9189;BME280;34313;50.780;6.084;2023-05-02T05:12:49;100082.31;;;10.45;100.00
9189;BME280;34313;50.780;6.084;2023-05-02T05:15:15;100093.16;;;10.57;100.00
9189;BME280;34313;50.780;6.084;2023-05-02T05:17:41;100094.44;;;10.49;100.00
9189;BME280;34313;50.780;6.084;2023-05-02T05:20:07;100100.56;;;10.49;100.00
9189;BME280;34313;50.780;6.084;2023-05-02T05:22:40;100101.56;;;10.47;100.00
9189;BME280;34313;50.780;6.084;2023-05-02T05:25:07;100104.41;;;10.42;100.00
9189;BME280;34313;50.780;6.084;2023-05-02T05:27:33;100106.84;;;10.47;100.00
9189;BME280;34313;50.780;6.084;2023-05-02T05:29:59;100103.97;;;10.51;100.00
9189;BME280;34313;50.780;6.084;2023-05-02T05:32:24;100115.38;;;10.52;100.00
9189;BME280;34313;50.780;6.084;2023-05-02T05:34:51;100117.00;;;10.54;100.00
9189;BME280;34313;50.780;6.084;2023-05-02T05:37:17;100125.69;;;10.56;100.00
9189;BME280;34313;50.780;6.084;2023-05-02T05:39:42;100124.22;;;10.51;100.00
9189;BME280;34313;50.780;6.084;2023-05-02T05:42:08;100136.53;;;10.50;100.00
9189;BME280;34313;50.780;6.084;2023-05-02T05:44:34;100132.81;;;10.54;100.00
9189;BME280;34313;50.780;6.084;2023-05-02T05:47:00;100137.94;;;10.57;100.00
9189;BME280;34313;50.780;6.084;2023-05-02T05:49:25;100140.88;;;10.51;100.00
9189;BME280;34313;50.780;6.084;2023-05-02T05:51:51;100137.84;;;10.42;100.00
9189;BME280;34313;50.780;6.084;2023-05-02T05:54:16;100146.28;;;10.48;100.00
9189;BME280;34313;50.780;6.084;2023-05-02T05:56:42;100152.19;;;10.53;100.00
9189;BME280;34313;50.780;6.084;2023-05-02T05:59:08;100154.41;;;10.44;100.00
9189;BME280;34313;50.780;6.084;2023-05-02T06:01:33;100152.56;;;10.46;100.00
9189;BME280;34313;50.780;6.084;2023-05-02T06:04:00;100159.69;;;10.44;100.00
9189;BME280;34313;50.780;6.084;2023-05-02T06:06:27;100172.44;;;10.53;100.00
9189;BME280;34313;50.780;6.084;2023-05-02T06:08:52;100168.81;;;10.36;100.00
9189;BME280;34313;50.780;6.084;2023-05-02T06:11:18;100171.91;;;10.45;100.00
9189;BME280;34313;50.780;6.084;2023-05-02T06:13:43;100179.63;;;10.49;100.00
9189;BME280;34313;50.780;6.084;2023-05-02T06:16:08;100176.06;;;10.50;100.00
9189;BME280;34313;50.780;6.084;2023-05-02T06:18:34;100181.69;;;10.62;100.00
9189;BME280;34313;50.780;6.084;2023-05-02T06:21:03;100177.16;;;10.83;100.00
9189;BME280;34313;50.780;6.084;2023-05-02T06:23:28;100170.56;;;10.91;100.00
9189;BME280;34313;50.780;6.084;2023-05-02T06:25:58;100178.66;;;11.06;100.00
9189;BME280;34313;50.780;6.084;2023-05-02T06:28:23;100186.66;;;11.22;100.00
9189;BME280;34313;50.780;6.084;2023-05-02T06:31:02;100184.19;;;11.19;100.00
9189;BME280;34313;50.780;6.084;2023-05-02T06:33:28;100185.91;;;11.20;100.00
9189;BME280;34313;50.780;6.084;2023-05-02T06:35:54;100198.03;;;11.24;100.00
9189;BME280;34313;50.780;6.084;2023-05-02T06:38:19;100194.97;;;11.14;100.00
9189;BME280;34313;50.780;6.084;2023-05-02T06:40:45;100196.69;;;11.15;100.00
9189;BME280;34313;50.780;6.084;2023-05-02T06:43:11;100200.72;;;11.22;100.00
9189;BME280;34313;50.780;6.084;2023-05-02T06:45:37;100203.03;;;11.11;100.00
9189;BME280;34313;50.780;6.084;2023-05-02T06:48:02;100209.75;;;10.99;100.00
9189;BME280;34313;50.780;6.084;2023-05-02T06:50:28;100222.56;;;10.89;100.00
9189;BME280;34313;50.780;6.084;2023-05-02T06:52:54;100227.91;;;10.88;100.00
9189;BME280;34313;50.780;6.084;2023-05-02T06:55:19;100222.63;;;10.88;100.00
9189;BME280;34313;50.780;6.084;2023-05-02T06:57:45;100230.97;;;10.78;100.00
9189;BME280;34313;50.780;6.084;2023-05-02T07:00:11;100233.25;;;10.86;100.00
9189;BME280;34313;50.780;6.084;2023-05-02T07:02:37;100232.16;;;10.90;100.00
9189;BME280;34313;50.780;6.084;2023-05-02T07:05:02;100236.13;;;10.99;100.00
9189;BME280;34313;50.780;6.084;2023-05-02T07:07:27;100236.47;;;11.10;100.00
9189;BME280;34313;50.780;6.084;2023-05-02T07:09:53;100246.59;;;11.37;100.00
9189;BME280;34313;50.780;6.084;2023-05-02T07:12:18;100234.03;;;11.60;100.00
9189;BME280;34313;50.780;6.084;2023-05-02T07:14:43;100235.34;;;12.03;100.00
9189;BME280;34313;50.780;6.084;2023-05-02T07:17:10;100234.59;;;12.51;100.00
9189;BME280;34313;50.780;6.084;2023-05-02T07:19:36;100239.28;;;12.77;100.00
9189;BME280;34313;50.780;6.084;2023-05-02T07:22:01;100236.13;;;12.86;100.00
9189;BME280;34313;50.780;6.084;2023-05-02T07:24:27;100244.94;;;13.03;100.00
9189;BME280;34313;50.780;6.084;2023-05-02T07:26:52;100250.19;;;13.19;100.00
9189;BME280;34313;50.780;6.084;2023-05-02T07:29:20;100259.25;;;13.15;100.00
9189;BME280;34313;50.780;6.084;2023-05-02T07:31:46;100261.91;;;12.99;100.00
9189;BME280;34313;50.780;6.084;2023-05-02T07:34:11;100260.97;;;12.84;100.00
9189;BME280;34313;50.780;6.084;2023-05-02T07:36:36;100269.91;;;12.65;100.00
9189;BME280;34313;50.780;6.084;2023-05-02T07:39:02;100273.56;;;12.47;100.00
9189;BME280;34313;50.780;6.084;2023-05-02T07:41:27;100267.66;;;12.42;100.00
9189;BME280;34313;50.780;6.084;2023-05-02T07:43:52;100268.66;;;12.39;100.00
9189;BME280;34313;50.780;6.084;2023-05-02T07:46:18;100262.78;;;12.67;100.00
9189;BME280;34313;50.780;6.084;2023-05-02T07:48:43;100268.63;;;13.20;99.29
9189;BME280;34313;50.780;6.084;2023-05-02T07:51:09;100264.41;;;13.64;96.59
9189;BME280;34313;50.780;6.084;2023-05-02T07:53:35;100276.13;;;14.05;91.80
9189;BME280;34313;50.780;6.084;2023-05-02T07:56:03;100280.09;;;14.55;88.86
9189;BME280;34313;50.780;6.084;2023-05-02T07:58:30;100277.16;;;14.88;85.35
9189;BME280;34313;50.780;6.084;2023-05-02T08:00:56;100280.56;;;15.18;81.41
9189;BME280;34313;50.780;6.084;2023-05-02T08:03:21;100289.13;;;15.36;80.50
9189;BME280;34313;50.780;6.084;2023-05-02T08:05:46;100291.69;;;15.37;79.57
9189;BME280;34313;50.780;6.084;2023-05-02T08:08:12;100293.34;;;14.98;78.87
9189;BME280;34313;50.780;6.084;2023-05-02T08:10:37;100305.97;;;14.80;78.95
9189;BME280;34313;50.780;6.084;2023-05-02T08:13:02;100303.25;;;14.67;79.15
9189;BME280;34313;50.780;6.084;2023-05-02T08:15:28;100307.94;;;14.19;78.90
9189;BME280;34313;50.780;6.084;2023-05-02T08:17:54;100305.75;;;14.11;79.90
9189;BME280;34313;50.780;6.084;2023-05-02T08:20:19;100309.09;;;13.85;80.57
9189;BME280;34313;50.780;6.084;2023-05-02T08:22:46;100310.28;;;14.09;80.89
9189;BME280;34313;50.780;6.084;2023-05-02T08:25:11;100306.16;;;14.48;80.83
9189;BME280;34313;50.780;6.084;2023-05-02T08:27:36;100297.06;;;14.81;77.40
9189;BME280;34313;50.780;6.084;2023-05-02T08:30:02;100308.03;;;15.04;76.04
9189;BME280;34313;50.780;6.084;2023-05-02T08:32:27;100313.03;;;15.08;74.45
9189;BME280;34313;50.780;6.084;2023-05-02T08:34:54;100308.09;;;15.17;72.40
9189;BME280;34313;50.780;6.084;2023-05-02T08:37:21;100318.13;;;15.93;70.08
9189;BME280;34313;50.780;6.084;2023-05-02T08:39:46;100314.03;;;17.88;62.33
9189;BME280;34313;50.780;6.084;2023-05-02T08:42:12;100309.81;;;19.33;57.08
9189;BME280;34313;50.780;6.084;2023-05-02T08:44:37;100315.59;;;20.45;51.64
9189;BME280;34313;50.780;6.084;2023-05-02T08:47:03;100306.69;;;21.15;49.75
9189;BME280;34313;50.780;6.084;2023-05-02T08:49:33;100319.16;;;20.76;47.93
9189;BME280;34313;50.780;6.084;2023-05-02T08:52:00;100323.91;;;20.42;47.84
9189;BME280;34313;50.780;6.084;2023-05-02T08:54:26;100322.22;;;19.98;48.79
9189;BME280;34313;50.780;6.084;2023-05-02T08:56:55;100333.47;;;19.81;49.67
9189;BME280;34313;50.780;6.084;2023-05-02T08:59:21;100328.59;;;19.86;50.03
9189;BME280;34313;50.780;6.084;2023-05-02T09:01:52;100330.44;;;19.42;49.78
9189;BME280;34313;50.780;6.084;2023-05-02T09:04:22;100332.41;;;19.40;49.40
9189;BME280;34313;50.780;6.084;2023-05-02T09:06:48;100338.22;;;19.45;48.69
9189;BME280;34313;50.780;6.084;2023-05-02T09:09:13;100345.66;;;20.27;47.39
9189;BME280;34313;50.780;6.084;2023-05-02T09:11:39;100351.00;;;20.06;46.03
9189;BME280;34313;50.780;6.084;2023-05-02T09:14:13;100353.72;;;19.62;47.80
9189;BME280;34313;50.780;6.084;2023-05-02T09:16:39;100347.91;;;19.57;48.07
9189;BME280;34313;50.780;6.084;2023-05-02T09:19:04;100359.25;;;19.38;47.80
9189;BME280;34313;50.780;6.084;2023-05-02T09:21:37;100366.22;;;19.07;48.43
9189;BME280;34313;50.780;6.084;2023-05-02T09:24:17;100356.13;;;19.11;48.72
9189;BME280;34313;50.780;6.084;2023-05-02T09:26:59;100355.44;;;18.86;48.40
9189;BME280;34313;50.780;6.084;2023-05-02T09:29:26;100366.06;;;18.41;49.39
9189;BME280;34313;50.780;6.084;2023-05-02T09:31:52;100366.03;;;18.18;49.91
9189;BME280;34313;50.780;6.084;2023-05-02T09:34:18;100367.25;;;17.66;49.69
9189;BME280;34313;50.780;6.084;2023-05-02T09:36:49;100377.63;;;17.20;50.60
9189;BME280;34313;50.780;6.084;2023-05-02T09:39:21;100378.34;;;16.86;51.74
9189;BME280;34313;50.780;6.084;2023-05-02T09:41:47;100378.94;;;17.39;50.69
9189;BME280;34313;50.780;6.084;2023-05-02T09:44:14;100385.03;;;18.13;49.19
9189;BME280;34313;50.780;6.084;2023-05-02T09:46:51;100377.41;;;19.23;45.30
9189;BME280;34313;50.780;6.084;2023-05-02T09:49:17;100380.03;;;20.11;43.18
9189;BME280;34313;50.780;6.084;2023-05-02T09:51:43;100382.34;;;20.15;43.27
9189;BME280;34313;50.780;6.084;2023-05-02T09:54:09;100385.94;;;20.26;42.19
9189;BME280;34313;50.780;6.084;2023-05-02T09:56:56;100391.38;;;20.35;41.96
9189;BME280;34313;50.780;6.084;2023-05-02T09:59:22;100395.53;;;20.70;41.12
9189;BME280;34313;50.780;6.084;2023-05-02T10:01:58;100384.47;;;21.25;39.79
9189;BME280;34313;50.780;6.084;2023-05-02T10:04:25;100383.22;;;21.20;40.21
9189;BME280;34313;50.780;6.084;2023-05-02T10:06:51;100391.06;;;21.11;40.48
9189;BME280;34313;50.780;6.084;2023-05-02T10:09:18;100397.34;;;20.49;39.86
9189;BME280;34313;50.780;6.084;2023-05-02T10:11:45;100402.94;;;20.88;39.70
9189;BME280;34313;50.780;6.084;2023-05-02T10:14:11;100407.78;;;20.94;39.21
9189;BME280;34313;50.780;6.084;2023-05-02T10:16:51;100406.00;;;21.04;39.04
9189;BME280;34313;50.780;6.084;2023-05-02T10:19:23;100399.03;;;21.42;38.81
9189;BME280;34313;50.780;6.084;2023-05-02T10:21:52;100403.63;;;21.51;38.71
9189;BME280;34313;50.780;6.084;2023-05-02T10:24:18;100408.41;;;21.07;38.84
9189;BME280;34313;50.780;6.084;2023-05-02T10:26:46;100407.47;;;20.45;40.01
9189;BME280;34313;50.780;6.084;2023-05-02T10:29:12;100407.94;;;20.29;40.61
9189;BME280;34313;50.780;6.084;2023-05-02T10:31:38;100401.28;;;19.91;41.64
9189;BME280;34313;50.780;6.084;2023-05-02T10:34:05;100403.66;;;19.85;41.25
9189;BME280;34313;50.780;6.084;2023-05-02T10:36:34;100401.47;;;19.78;41.79
9189;BME280;34313;50.780;6.084;2023-05-02T10:39:01;100397.41;;;19.95;40.41
9189;BME280;34313;50.780;6.084;2023-05-02T10:41:28;100400.97;;;20.38;39.45
9189;BME280;34313;50.780;6.084;2023-05-02T10:43:55;100397.03;;;20.42;39.90
9189;BME280;34313;50.780;6.084;2023-05-02T10:49:06;100405.44;;;18.73;44.81
9189;BME280;34313;50.780;6.084;2023-05-02T10:51:32;100403.34;;;18.65;45.56
9189;BME280;34313;50.780;6.084;2023-05-02T10:57:13;100407.41;;;18.35;46.60
9189;BME280;34313;50.780;6.084;2023-05-02T10:59:42;100393.84;;;18.38;46.96
9189;BME280;34313;50.780;6.084;2023-05-02T11:07:22;100390.50;;;18.81;46.05
9189;BME280;34313;50.780;6.084;2023-05-02T11:09:48;100390.47;;;18.70;45.70
9189;BME280;34313;50.780;6.084;2023-05-02T11:12:53;100401.22;;;18.46;45.87
9189;BME280;34313;50.780;6.084;2023-05-02T11:18:06;100401.75;;;18.04;46.84
9189;BME280;34313;50.780;6.084;2023-05-02T11:20:32;100399.56;;;18.45;45.89
9189;BME280;34313;50.780;6.084;2023-05-02T11:23:18;100403.28;;;18.31;45.75
9189;BME280;34313;50.780;6.084;2023-05-02T11:25:50;100398.66;;;19.14;44.86
9189;BME280;34313;50.780;6.084;2023-05-02T11:28:41;100400.72;;;18.87;43.85
9189;BME280;34313;50.780;6.084;2023-05-02T11:31:52;100396.09;;;19.12;43.63
9189;BME280;34313;50.780;6.084;2023-05-02T11:33:58;100397.53;;;19.39;43.35
9189;BME280;34313;50.780;6.084;2023-05-02T11:36:30;100398.28;;;19.30;42.83
9189;BME280;34313;50.780;6.084;2023-05-02T11:38:58;100413.75;;;18.45;43.18
9189;BME280;34313;50.780;6.084;2023-05-02T11:41:40;100411.09;;;17.86;44.93
9189;BME280;34313;50.780;6.084;2023-05-02T11:44:06;100407.28;;;18.37;44.40
9189;BME280;34313;50.780;6.084;2023-05-02T11:46:31;100408.25;;;18.94;43.79
9189;BME280;34313;50.780;6.084;2023-05-02T11:48:57;100405.44;;;18.73;43.24
9189;BME280;34313;50.780;6.084;2023-05-02T11:51:23;100408.31;;;18.11;44.36
9189;BME280;34313;50.780;6.084;2023-05-02T11:53:48;100404.63;;;18.01;45.01
9189;BME280;34313;50.780;6.084;2023-05-02T11:56:14;100410.13;;;18.11;45.10
9189;BME280;34313;50.780;6.084;2023-05-02T11:58:40;100408.84;;;18.28;44.83
9189;BME280;34313;50.780;6.084;2023-05-02T12:01:14;100412.13;;;18.89;44.09
9189;BME280;34313;50.780;6.084;2023-05-02T12:03:40;100408.06;;;18.50;42.96
9189;BME280;34313;50.780;6.084;2023-05-02T12:06:13;100405.00;;;19.13;43.67
9189;BME280;34313;50.780;6.084;2023-05-02T12:08:41;100415.03;;;19.43;41.66
9189;BME280;34313;50.780;6.084;2023-05-02T12:11:07;100421.88;;;18.44;43.63
9189;BME280;34313;50.780;6.084;2023-05-02T12:13:33;100431.09;;;18.04;45.00
9189;BME280;34313;50.780;6.084;2023-05-02T12:15:59;100424.63;;;17.95;45.67
9189;BME280;34313;50.780;6.084;2023-05-02T12:18:25;100424.44;;;18.10;45.58
9189;BME280;34313;50.780;6.084;2023-05-02T12:20:51;100428.50;;;18.27;45.41
9189;BME280;34313;50.780;6.084;2023-05-02T12:23:23;100448.22;;;18.48;44.97
9189;BME280;34313;50.780;6.084;2023-05-02T12:25:50;100441.16;;;18.83;43.31
9189;BME280;34313;50.780;6.084;2023-05-02T12:28:19;100437.03;;;18.32;44.05
9189;BME280;34313;50.780;6.084;2023-05-02T12:30:47;100440.88;;;18.04;45.36
9189;BME280;34313;50.780;6.084;2023-05-02T12:33:12;100447.78;;;18.66;44.12
9189;BME280;34313;50.780;6.084;2023-05-02T12:35:38;100441.47;;;18.78;41.58
9189;BME280;34313;50.780;6.084;2023-05-02T12:38:17;100442.44;;;18.66;41.89
9189;BME280;34313;50.780;6.084;2023-05-02T12:40:47;100451.50;;;18.63;42.49
9189;BME280;34313;50.780;6.084;2023-05-02T12:43:13;100442.59;;;18.40;42.88
9189;BME280;34313;50.780;6.084;2023-05-02T12:45:38;100446.88;;;18.43;43.14
9189;BME280;34313;50.780;6.084;2023-05-02T12:48:23;100456.34;;;17.87;44.29
9189;BME280;34313;50.780;6.084;2023-05-02T12:50:49;100467.59;;;17.04;46.51
9189;BME280;34313;50.780;6.084;2023-05-02T12:53:15;100465.66;;;17.19;46.79
9189;BME280;34313;50.780;6.084;2023-05-02T12:55:40;100456.22;;;17.39;46.95
9189;BME280;34313;50.780;6.084;2023-05-02T12:58:08;100470.34;;;17.03;46.93
9189;BME280;34313;50.780;6.084;2023-05-02T13:00:39;100464.16;;;17.15;46.69
9189;BME280;34313;50.780;6.084;2023-05-02T13:03:05;100473.19;;;16.74;46.81
9189;BME280;34313;50.780;6.084;2023-05-02T13:05:31;100473.81;;;16.12;48.61
9189;BME280;34313;50.780;6.084;2023-05-02T13:07:57;100470.31;;;15.97;47.06
9189;BME280;34313;50.780;6.084;2023-05-02T13:10:23;100462.50;;;16.08;47.55
9189;BME280;34313;50.780;6.084;2023-05-02T13:12:50;100465.75;;;16.26;47.20
9189;BME280;34313;50.780;6.084;2023-05-02T13:15:17;100473.56;;;17.08;45.34
9189;BME280;34313;50.780;6.084;2023-05-02T13:17:42;100466.78;;;17.53;45.49
9189;BME280;34313;50.780;6.084;2023-05-02T13:20:08;100478.69;;;17.48;44.70
9189;BME280;34313;50.780;6.084;2023-05-02T13:22:34;100466.94;;;18.00;43.98